sensor_id;sensor_type;location;lat;lon;timestamp;P1;durP1;ratioP1;P2;durP2;ratioP2
13204;SDS011;6667;52.634;9.226;2023-02-23T00:01:15;11.30;;;7.77;;
13204;SDS011;6667;52.634;9.226;2023-02-23T00:03:43;11.77;;;7.87;;
13204;SDS011;6667;52.634;9.226;2023-02-23T00:06:10;12.13;;;8.03;;
13204;SDS011;6667;52.634;9.226;2023-02-23T00:08:38;10.97;;;7.57;;
13204;SDS011;6667;52.634;9.226;2023-02-23T00:11:06;12.20;;;7.47;;
13204;SDS011;6667;52.634;9.226;2023-02-23T00:13:37;15.80;;;8.33;;
13204;SDS011;6667;52.634;9.226;2023-02-23T00:16:04;13.60;;;8.37;;
13204;SDS011;6667;52.634;9.226;2023-02-23T00:18:32;11.47;;;7.33;;
13204;SDS011;6667;52.634;9.226;2023-02-23T00:21:09;34.97;;;18.77;;
13204;SDS011;6667;52.634;9.226;2023-02-23T00:23:39;28.33;;;16.23;;
13204;SDS011;6667;52.634;9.226;2023-02-23T00:26:06;28.77;;;13.73;;
13204;SDS011;6667;52.634;9.226;2023-02-23T00:28:33;32.20;;;17.50;;
13204;SDS011;6667;52.634;9.226;2023-02-23T00:31:01;24.53;;;14.50;;
13204;SDS011;6667;52.634;9.226;2023-02-23T00:33:29;13.33;;;8.57;;
13204;SDS011;6667;52.634;9.226;2023-02-23T00:36:00;10.93;;;8.33;;
13204;SDS011;6667;52.634;9.226;2023-02-23T00:38:29;13.57;;;9.57;;
13204;SDS011;6667;52.634;9.226;2023-02-23T00:41:02;18.27;;;11.73;;
13204;SDS011;6667;52.634;9.226;2023-02-23T00:43:31;16.93;;;9.53;;
13204;SDS011;6667;52.634;9.226;2023-02-23T00:45:59;12.30;;;9.17;;
13204;SDS011;6667;52.634;9.226;2023-02-23T00:48:31;15.17;;;10.50;;
13204;SDS011;6667;52.634;9.226;2023-02-23T00:50:58;15.47;;;10.93;;
13204;SDS011;6667;52.634;9.226;2023-02-23T00:53:26;14.50;;;10.60;;
13204;SDS011;6667;52.634;9.226;2023-02-23T00:55:53;20.40;;;12.67;;
13204;SDS011;6667;52.634;9.226;2023-02-23T00:58:20;17.30;;;11.80;;
13204;SDS011;6667;52.634;9.226;2023-02-23T01:00:47;18.13;;;12.13;;
13204;SDS011;6667;52.634;9.226;2023-02-23T01:03:13;16.07;;;10.50;;
13204;SDS011;6667;52.634;9.226;2023-02-23T01:05:41;14.17;;;10.30;;
13204;SDS011;6667;52.634;9.226;2023-02-23T01:08:09;16.57;;;11.67;;
13204;SDS011;6667;52.634;9.226;2023-02-23T01:10:38;15.17;;;11.10;;
13204;SDS011;6667;52.634;9.226;2023-02-23T01:13:06;19.27;;;11.83;;
13204;SDS011;6667;52.634;9.226;2023-02-23T01:15:34;14.57;;;10.70;;
13204;SDS011;6667;52.634;9.226;2023-02-23T01:18:05;23.90;;;13.60;;
13204;SDS011;6667;52.634;9.226;2023-02-23T01:20:33;19.13;;;12.67;;
13204;SDS011;6667;52.634;9.226;2023-02-23T01:23:02;19.07;;;14.33;;
13204;SDS011;6667;52.634;9.226;2023-02-23T01:25:31;20.80;;;14.23;;
13204;SDS011;6667;52.634;9.226;2023-02-23T01:27:58;22.00;;;14.33;;
13204;SDS011;6667;52.634;9.226;2023-02-23T01:30:25;20.10;;;14.43;;
13204;SDS011;6667;52.634;9.226;2023-02-23T01:32:52;23.17;;;15.07;;
13204;SDS011;6667;52.634;9.226;2023-02-23T01:35:19;22.23;;;15.57;;
13204;SDS011;6667;52.634;9.226;2023-02-23T01:37:46;26.43;;;17.17;;
13204;SDS011;6667;52.634;9.226;2023-02-23T01:40:16;26.33;;;16.47;;
13204;SDS011;6667;52.634;9.226;2023-02-23T01:42:53;29.53;;;18.40;;
13204;SDS011;6667;52.634;9.226;2023-02-23T01:45:26;34.47;;;20.50;;
13204;SDS011;6667;52.634;9.226;2023-02-23T01:47:55;31.97;;;19.20;;
13204;SDS011;6667;52.634;9.226;2023-02-23T01:50:26;31.10;;;20.97;;
13204;SDS011;6667;52.634;9.226;2023-02-23T01:52:55;39.80;;;20.17;;
13204;SDS011;6667;52.634;9.226;2023-02-23T01:55:25;38.27;;;20.87;;
13204;SDS011;6667;52.634;9.226;2023-02-23T01:57:55;33.53;;;21.43;;
13204;SDS011;6667;52.634;9.226;2023-02-23T02:00:26;42.77;;;23.30;;
13204;SDS011;6667;52.634;9.226;2023-02-23T02:02:55;39.93;;;23.47;;
13204;SDS011;6667;52.634;9.226;2023-02-23T02:05:22;42.37;;;23.80;;
13204;SDS011;6667;52.634;9.226;2023-02-23T02:07:50;39.30;;;22.27;;
13204;SDS011;6667;52.634;9.226;2023-02-23T02:10:24;45.30;;;24.93;;
13204;SDS011;6667;52.634;9.226;2023-02-23T02:13:04;47.20;;;25.83;;
13204;SDS011;6667;52.634;9.226;2023-02-23T02:15:35;48.13;;;25.90;;
13204;SDS011;6667;52.634;9.226;2023-02-23T02:18:10;49.63;;;25.53;;
13204;SDS011;6667;52.634;9.226;2023-02-23T02:20:52;42.93;;;24.27;;
13204;SDS011;6667;52.634;9.226;2023-02-23T02:23:50;51.03;;;27.30;;
13204;SDS011;6667;52.634;9.226;2023-02-23T02:26:30;50.10;;;25.57;;
13204;SDS011;6667;52.634;9.226;2023-02-23T02:32:43;51.50;;;26.23;;
13204;SDS011;6667;52.634;9.226;2023-02-23T02:35:38;46.70;;;26.03;;
13204;SDS011;6667;52.634;9.226;2023-02-23T02:38:31;50.07;;;26.27;;
13204;SDS011;6667;52.634;9.226;2023-02-23T02:41:07;55.90;;;27.90;;
13204;SDS011;6667;52.634;9.226;2023-02-23T02:43:42;51.20;;;26.67;;
13204;SDS011;6667;52.634;9.226;2023-02-23T02:46:16;50.63;;;27.70;;
13204;SDS011;6667;52.634;9.226;2023-02-23T02:48:47;59.60;;;29.63;;
13204;SDS011;6667;52.634;9.226;2023-02-23T02:51:21;47.87;;;28.00;;
13204;SDS011;6667;52.634;9.226;2023-02-23T02:53:54;48.47;;;28.57;;
13204;SDS011;6667;52.634;9.226;2023-02-23T02:56:30;57.20;;;30.50;;
13204;SDS011;6667;52.634;9.226;2023-02-23T02:59:03;57.40;;;29.27;;
13204;SDS011;6667;52.634;9.226;2023-02-23T03:01:30;59.30;;;30.17;;
13204;SDS011;6667;52.634;9.226;2023-02-23T03:04:19;55.83;;;28.87;;
13204;SDS011;6667;52.634;9.226;2023-02-23T03:07:06;49.93;;;27.27;;
13204;SDS011;6667;52.634;9.226;2023-02-23T03:09:57;49.90;;;27.87;;
13204;SDS011;6667;52.634;9.226;2023-02-23T03:12:51;47.77;;;27.27;;
13204;SDS011;6667;52.634;9.226;2023-02-23T03:15:42;44.77;;;26.60;;
13204;SDS011;6667;52.634;9.226;2023-02-23T03:18:41;46.03;;;25.80;;
13204;SDS011;6667;52.634;9.226;2023-02-23T03:21:34;44.60;;;25.97;;
13204;SDS011;6667;52.634;9.226;2023-02-23T03:24:25;42.80;;;24.83;;
13204;SDS011;6667;52.634;9.226;2023-02-23T03:27:19;47.53;;;26.87;;
13204;SDS011;6667;52.634;9.226;2023-02-23T03:30:09;45.17;;;24.57;;
13204;SDS011;6667;52.634;9.226;2023-02-23T03:33:03;43.23;;;24.80;;
13204;SDS011;6667;52.634;9.226;2023-02-23T03:35:54;43.97;;;24.00;;
13204;SDS011;6667;52.634;9.226;2023-02-23T03:38:44;44.83;;;24.43;;
13204;SDS011;6667;52.634;9.226;2023-02-23T03:41:35;44.03;;;24.40;;
13204;SDS011;6667;52.634;9.226;2023-02-23T03:44:25;42.73;;;24.10;;
13204;SDS011;6667;52.634;9.226;2023-02-23T03:47:13;45.83;;;25.73;;
13204;SDS011;6667;52.634;9.226;2023-02-23T03:49:59;42.67;;;25.57;;
13204;SDS011;6667;52.634;9.226;2023-02-23T03:52:48;43.60;;;25.13;;
13204;SDS011;6667;52.634;9.226;2023-02-23T03:55:37;48.03;;;27.37;;
13204;SDS011;6667;52.634;9.226;2023-02-23T03:58:26;44.77;;;26.77;;
13204;SDS011;6667;52.634;9.226;2023-02-23T04:01:16;44.23;;;24.50;;
13204;SDS011;6667;52.634;9.226;2023-02-23T04:04:03;49.03;;;25.53;;
13204;SDS011;6667;52.634;9.226;2023-02-23T04:06:49;41.07;;;25.13;;
13204;SDS011;6667;52.634;9.226;2023-02-23T04:09:35;49.27;;;27.37;;
13204;SDS011;6667;52.634;9.226;2023-02-23T04:12:19;48.93;;;27.60;;
13204;SDS011;6667;52.634;9.226;2023-02-23T04:15:10;56.17;;;29.87;;
13204;SDS011;6667;52.634;9.226;2023-02-23T04:17:43;48.37;;;27.87;;
13204;SDS011;6667;52.634;9.226;2023-02-23T04:20:10;54.57;;;29.37;;
13204;SDS011;6667;52.634;9.226;2023-02-23T04:22:38;58.00;;;30.47;;
13204;SDS011;6667;52.634;9.226;2023-02-23T04:25:05;59.37;;;31.10;;
13204;SDS011;6667;52.634;9.226;2023-02-23T04:27:33;57.80;;;33.17;;
13204;SDS011;6667;52.634;9.226;2023-02-23T04:30:00;64.83;;;34.23;;
13204;SDS011;6667;52.634;9.226;2023-02-23T04:32:27;59.90;;;32.60;;
13204;SDS011;6667;52.634;9.226;2023-02-23T04:34:56;62.87;;;32.80;;
13204;SDS011;6667;52.634;9.226;2023-02-23T04:37:22;60.53;;;34.20;;
13204;SDS011;6667;52.634;9.226;2023-02-23T04:39:49;56.23;;;32.47;;
13204;SDS011;6667;52.634;9.226;2023-02-23T04:42:16;61.13;;;32.40;;
13204;SDS011;6667;52.634;9.226;2023-02-23T04:44:44;66.40;;;34.03;;
13204;SDS011;6667;52.634;9.226;2023-02-23T04:47:11;66.83;;;34.40;;
13204;SDS011;6667;52.634;9.226;2023-02-23T04:49:39;60.23;;;35.27;;
13204;SDS011;6667;52.634;9.226;2023-02-23T04:52:07;65.63;;;35.17;;
13204;SDS011;6667;52.634;9.226;2023-02-23T04:54:36;69.30;;;34.57;;
13204;SDS011;6667;52.634;9.226;2023-02-23T04:57:03;62.00;;;33.70;;
13204;SDS011;6667;52.634;9.226;2023-02-23T04:59:32;63.90;;;34.73;;
13204;SDS011;6667;52.634;9.226;2023-02-23T05:01:58;63.83;;;34.80;;
13204;SDS011;6667;52.634;9.226;2023-02-23T05:04:25;66.63;;;35.40;;
13204;SDS011;6667;52.634;9.226;2023-02-23T05:06:52;67.23;;;36.30;;
13204;SDS011;6667;52.634;9.226;2023-02-23T05:09:20;61.13;;;33.63;;
13204;SDS011;6667;52.634;9.226;2023-02-23T05:11:46;65.63;;;34.47;;
13204;SDS011;6667;52.634;9.226;2023-02-23T05:14:13;66.77;;;36.00;;
13204;SDS011;6667;52.634;9.226;2023-02-23T05:16:40;65.93;;;35.87;;
13204;SDS011;6667;52.634;9.226;2023-02-23T05:19:06;71.20;;;36.80;;
13204;SDS011;6667;52.634;9.226;2023-02-23T05:21:33;66.20;;;36.90;;
13204;SDS011;6667;52.634;9.226;2023-02-23T05:24:00;79.57;;;39.03;;
13204;SDS011;6667;52.634;9.226;2023-02-23T05:26:28;70.77;;;38.83;;
13204;SDS011;6667;52.634;9.226;2023-02-23T05:28:55;78.97;;;39.53;;
13204;SDS011;6667;52.634;9.226;2023-02-23T05:31:22;69.63;;;35.67;;
13204;SDS011;6667;52.634;9.226;2023-02-23T05:33:48;74.87;;;39.30;;
13204;SDS011;6667;52.634;9.226;2023-02-23T05:36:16;72.30;;;36.20;;
13204;SDS011;6667;52.634;9.226;2023-02-23T05:38:44;67.93;;;36.67;;
13204;SDS011;6667;52.634;9.226;2023-02-23T05:41:12;73.80;;;39.73;;
13204;SDS011;6667;52.634;9.226;2023-02-23T05:43:41;75.57;;;38.57;;
13204;SDS011;6667;52.634;9.226;2023-02-23T05:46:08;78.33;;;39.20;;
13204;SDS011;6667;52.634;9.226;2023-02-23T05:48:36;78.67;;;40.50;;
13204;SDS011;6667;52.634;9.226;2023-02-23T05:51:04;80.27;;;40.00;;
13204;SDS011;6667;52.634;9.226;2023-02-23T05:53:33;80.30;;;39.93;;
13204;SDS011;6667;52.634;9.226;2023-02-23T05:56:00;80.10;;;40.53;;
13204;SDS011;6667;52.634;9.226;2023-02-23T05:58:27;77.43;;;37.37;;
13204;SDS011;6667;52.634;9.226;2023-02-23T06:00:56;78.33;;;39.03;;
13204;SDS011;6667;52.634;9.226;2023-02-23T06:03:23;68.80;;;37.37;;
13204;SDS011;6667;52.634;9.226;2023-02-23T06:05:50;76.03;;;38.97;;
13204;SDS011;6667;52.634;9.226;2023-02-23T06:08:17;69.83;;;38.83;;
13204;SDS011;6667;52.634;9.226;2023-02-23T06:10:45;79.37;;;39.30;;
13204;SDS011;6667;52.634;9.226;2023-02-23T06:13:12;77.10;;;39.90;;
13204;SDS011;6667;52.634;9.226;2023-02-23T06:15:40;79.47;;;38.17;;
13204;SDS011;6667;52.634;9.226;2023-02-23T06:18:09;75.13;;;40.83;;
13204;SDS011;6667;52.634;9.226;2023-02-23T06:20:35;85.10;;;40.37;;
13204;SDS011;6667;52.634;9.226;2023-02-23T06:23:03;78.80;;;40.00;;
13204;SDS011;6667;52.634;9.226;2023-02-23T06:25:31;83.07;;;40.53;;
13204;SDS011;6667;52.634;9.226;2023-02-23T06:27:58;77.43;;;39.77;;
13204;SDS011;6667;52.634;9.226;2023-02-23T06:30:24;78.73;;;40.50;;
13204;SDS011;6667;52.634;9.226;2023-02-23T06:32:51;82.53;;;40.00;;
13204;SDS011;6667;52.634;9.226;2023-02-23T06:35:19;86.93;;;39.97;;
13204;SDS011;6667;52.634;9.226;2023-02-23T06:37:46;79.87;;;39.37;;
13204;SDS011;6667;52.634;9.226;2023-02-23T06:40:13;92.70;;;42.67;;
13204;SDS011;6667;52.634;9.226;2023-02-23T06:42:39;90.23;;;43.00;;
13204;SDS011;6667;52.634;9.226;2023-02-23T06:45:06;86.90;;;40.80;;
13204;SDS011;6667;52.634;9.226;2023-02-23T06:47:34;87.83;;;41.40;;
13204;SDS011;6667;52.634;9.226;2023-02-23T06:50:00;77.17;;;36.83;;
13204;SDS011;6667;52.634;9.226;2023-02-23T06:52:29;91.77;;;43.77;;
13204;SDS011;6667;52.634;9.226;2023-02-23T06:54:55;83.67;;;41.43;;
13204;SDS011;6667;52.634;9.226;2023-02-23T06:57:22;79.53;;;40.40;;
13204;SDS011;6667;52.634;9.226;2023-02-23T06:59:49;90.70;;;42.73;;
13204;SDS011;6667;52.634;9.226;2023-02-23T07:02:15;90.90;;;42.70;;
13204;SDS011;6667;52.634;9.226;2023-02-23T07:04:42;84.90;;;38.53;;
13204;SDS011;6667;52.634;9.226;2023-02-23T07:07:09;88.97;;;41.90;;
13204;SDS011;6667;52.634;9.226;2023-02-23T07:09:39;92.67;;;43.10;;
13204;SDS011;6667;52.634;9.226;2023-02-23T07:12:06;83.80;;;42.30;;
13204;SDS011;6667;52.634;9.226;2023-02-23T07:14:33;88.40;;;41.63;;
13204;SDS011;6667;52.634;9.226;2023-02-23T07:17:00;84.03;;;40.83;;
13204;SDS011;6667;52.634;9.226;2023-02-23T07:19:27;76.27;;;37.57;;
13204;SDS011;6667;52.634;9.226;2023-02-23T07:21:53;91.40;;;43.13;;
13204;SDS011;6667;52.634;9.226;2023-02-23T07:24:20;93.77;;;41.47;;
13204;SDS011;6667;52.634;9.226;2023-02-23T07:26:49;79.60;;;39.87;;
13204;SDS011;6667;52.634;9.226;2023-02-23T07:29:16;82.40;;;38.80;;
13204;SDS011;6667;52.634;9.226;2023-02-23T07:31:43;82.13;;;39.30;;
13204;SDS011;6667;52.634;9.226;2023-02-23T07:34:10;77.43;;;39.77;;
13204;SDS011;6667;52.634;9.226;2023-02-23T07:36:37;89.73;;;42.27;;
13204;SDS011;6667;52.634;9.226;2023-02-23T07:39:04;86.50;;;41.97;;
13204;SDS011;6667;52.634;9.226;2023-02-23T07:41:30;81.77;;;42.90;;
13204;SDS011;6667;52.634;9.226;2023-02-23T07:43:59;97.20;;;41.87;;
13204;SDS011;6667;52.634;9.226;2023-02-23T07:46:26;94.17;;;41.10;;
13204;SDS011;6667;52.634;9.226;2023-02-23T07:48:52;91.97;;;43.83;;
13204;SDS011;6667;52.634;9.226;2023-02-23T07:51:19;100.17;;;44.73;;
13204;SDS011;6667;52.634;9.226;2023-02-23T07:53:46;106.87;;;46.57;;
13204;SDS011;6667;52.634;9.226;2023-02-23T07:56:13;99.30;;;43.80;;
13204;SDS011;6667;52.634;9.226;2023-02-23T07:58:39;111.80;;;47.93;;
13204;SDS011;6667;52.634;9.226;2023-02-23T08:01:09;105.83;;;46.80;;
13204;SDS011;6667;52.634;9.226;2023-02-23T08:03:37;111.10;;;48.50;;
13204;SDS011;6667;52.634;9.226;2023-02-23T08:06:04;107.33;;;48.43;;
13204;SDS011;6667;52.634;9.226;2023-02-23T08:08:31;119.73;;;51.07;;
13204;SDS011;6667;52.634;9.226;2023-02-23T08:10:59;101.17;;;47.83;;
13204;SDS011;6667;52.634;9.226;2023-02-23T08:13:26;113.93;;;46.97;;
13204;SDS011;6667;52.634;9.226;2023-02-23T08:15:53;118.03;;;50.63;;
13204;SDS011;6667;52.634;9.226;2023-02-23T08:18:21;112.80;;;48.10;;
13204;SDS011;6667;52.634;9.226;2023-02-23T08:20:47;122.57;;;50.47;;
13204;SDS011;6667;52.634;9.226;2023-02-23T08:23:14;124.70;;;52.37;;
13204;SDS011;6667;52.634;9.226;2023-02-23T08:25:42;121.70;;;50.93;;
13204;SDS011;6667;52.634;9.226;2023-02-23T08:28:09;117.83;;;49.97;;
13204;SDS011;6667;52.634;9.226;2023-02-23T08:30:35;101.33;;;45.80;;
13204;SDS011;6667;52.634;9.226;2023-02-23T08:33:03;116.20;;;50.10;;
13204;SDS011;6667;52.634;9.226;2023-02-23T08:35:31;112.90;;;48.93;;
13204;SDS011;6667;52.634;9.226;2023-02-23T08:37:58;111.70;;;49.27;;
13204;SDS011;6667;52.634;9.226;2023-02-23T08:40:25;114.73;;;48.60;;
13204;SDS011;6667;52.634;9.226;2023-02-23T08:42:51;103.53;;;47.77;;
13204;SDS011;6667;52.634;9.226;2023-02-23T08:45:18;99.00;;;45.90;;
13204;SDS011;6667;52.634;9.226;2023-02-23T08:47:45;103.37;;;47.70;;
13204;SDS011;6667;52.634;9.226;2023-02-23T08:50:12;101.03;;;45.17;;
13204;SDS011;6667;52.634;9.226;2023-02-23T08:52:40;98.23;;;44.57;;
13204;SDS011;6667;52.634;9.226;2023-02-23T08:55:07;100.50;;;45.73;;
13204;SDS011;6667;52.634;9.226;2023-02-23T08:57:35;99.10;;;45.23;;
13204;SDS011;6667;52.634;9.226;2023-02-23T09:00:03;100.27;;;44.57;;
13204;SDS011;6667;52.634;9.226;2023-02-23T09:02:37;91.17;;;42.73;;
13204;SDS011;6667;52.634;9.226;2023-02-23T09:05:05;88.97;;;41.87;;
13204;SDS011;6667;52.634;9.226;2023-02-23T09:07:32;87.47;;;41.03;;
13204;SDS011;6667;52.634;9.226;2023-02-23T09:10:00;78.57;;;38.90;;
13204;SDS011;6667;52.634;9.226;2023-02-23T09:12:27;84.13;;;39.50;;
13204;SDS011;6667;52.634;9.226;2023-02-23T09:14:53;77.23;;;37.93;;
13204;SDS011;6667;52.634;9.226;2023-02-23T09:17:20;80.33;;;36.20;;
13204;SDS011;6667;52.634;9.226;2023-02-23T09:19:48;72.63;;;36.30;;
13204;SDS011;6667;52.634;9.226;2023-02-23T09:22:15;75.90;;;37.20;;
13204;SDS011;6667;52.634;9.226;2023-02-23T09:24:42;70.30;;;34.03;;
13204;SDS011;6667;52.634;9.226;2023-02-23T09:27:10;72.77;;;35.83;;
13204;SDS011;6667;52.634;9.226;2023-02-23T09:29:38;78.63;;;35.07;;
13204;SDS011;6667;52.634;9.226;2023-02-23T09:32:07;77.80;;;37.63;;
13204;SDS011;6667;52.634;9.226;2023-02-23T09:34:34;76.97;;;36.53;;
13204;SDS011;6667;52.634;9.226;2023-02-23T09:37:00;75.63;;;37.03;;
13204;SDS011;6667;52.634;9.226;2023-02-23T09:39:27;70.07;;;35.77;;
13204;SDS011;6667;52.634;9.226;2023-02-23T09:41:57;70.80;;;35.10;;
13204;SDS011;6667;52.634;9.226;2023-02-23T09:47:33;67.90;;;36.10;;
13204;SDS011;6667;52.634;9.226;2023-02-23T09:50:11;78.87;;;38.27;;
13204;SDS011;6667;52.634;9.226;2023-02-23T09:52:42;76.23;;;37.50;;
13204;SDS011;6667;52.634;9.226;2023-02-23T09:55:12;79.60;;;37.03;;
13204;SDS011;6667;52.634;9.226;2023-02-23T09:57:41;78.87;;;35.20;;
13204;SDS011;6667;52.634;9.226;2023-02-23T10:00:13;74.73;;;35.40;;
13204;SDS011;6667;52.634;9.226;2023-02-23T10:02:49;80.20;;;37.00;;
13204;SDS011;6667;52.634;9.226;2023-02-23T10:05:35;78.80;;;37.13;;
13204;SDS011;6667;52.634;9.226;2023-02-23T10:08:11;78.20;;;36.77;;
13204;SDS011;6667;52.634;9.226;2023-02-23T10:10:46;69.30;;;33.10;;
13204;SDS011;6667;52.634;9.226;2023-02-23T10:13:18;68.30;;;35.23;;
13204;SDS011;6667;52.634;9.226;2023-02-23T10:15:53;74.73;;;34.10;;
13204;SDS011;6667;52.634;9.226;2023-02-23T10:18:24;71.53;;;33.50;;
13204;SDS011;6667;52.634;9.226;2023-02-23T10:20:58;73.73;;;34.13;;
13204;SDS011;6667;52.634;9.226;2023-02-23T10:23:30;77.30;;;33.83;;
13204;SDS011;6667;52.634;9.226;2023-02-23T10:26:00;72.53;;;32.87;;
13204;SDS011;6667;52.634;9.226;2023-02-23T10:28:32;67.67;;;34.33;;
13204;SDS011;6667;52.634;9.226;2023-02-23T10:31:01;77.53;;;36.43;;
13204;SDS011;6667;52.634;9.226;2023-02-23T10:33:40;70.70;;;32.93;;
13204;SDS011;6667;52.634;9.226;2023-02-23T10:36:09;78.63;;;33.07;;
13204;SDS011;6667;52.634;9.226;2023-02-23T10:38:40;68.63;;;32.63;;
13204;SDS011;6667;52.634;9.226;2023-02-23T10:41:06;77.63;;;33.70;;
13204;SDS011;6667;52.634;9.226;2023-02-23T10:43:36;72.90;;;33.77;;
13204;SDS011;6667;52.634;9.226;2023-02-23T10:46:04;71.90;;;33.30;;
13204;SDS011;6667;52.634;9.226;2023-02-23T10:48:32;70.53;;;33.57;;
13204;SDS011;6667;52.634;9.226;2023-02-23T10:51:03;67.23;;;31.90;;
13204;SDS011;6667;52.634;9.226;2023-02-23T10:53:39;66.70;;;32.30;;
13204;SDS011;6667;52.634;9.226;2023-02-23T10:56:07;63.33;;;30.97;;
13204;SDS011;6667;52.634;9.226;2023-02-23T10:58:40;63.83;;;30.47;;
13204;SDS011;6667;52.634;9.226;2023-02-23T11:01:13;68.27;;;30.80;;
13204;SDS011;6667;52.634;9.226;2023-02-23T11:03:41;61.40;;;30.60;;
13204;SDS011;6667;52.634;9.226;2023-02-23T11:06:25;64.37;;;29.77;;
13204;SDS011;6667;52.634;9.226;2023-02-23T11:08:53;67.83;;;30.60;;
13204;SDS011;6667;52.634;9.226;2023-02-23T11:11:21;69.23;;;31.53;;
13204;SDS011;6667;52.634;9.226;2023-02-23T11:13:52;68.43;;;31.20;;
13204;SDS011;6667;52.634;9.226;2023-02-23T11:16:21;71.67;;;33.47;;
13204;SDS011;6667;52.634;9.226;2023-02-23T11:18:51;69.27;;;31.33;;
13204;SDS011;6667;52.634;9.226;2023-02-23T11:21:21;76.03;;;31.70;;
13204;SDS011;6667;52.634;9.226;2023-02-23T11:23:50;71.33;;;30.70;;
13204;SDS011;6667;52.634;9.226;2023-02-23T11:26:20;72.70;;;32.13;;
13204;SDS011;6667;52.634;9.226;2023-02-23T11:28:52;71.50;;;29.53;;
13204;SDS011;6667;52.634;9.226;2023-02-23T11:31:26;67.57;;;29.83;;
13204;SDS011;6667;52.634;9.226;2023-02-23T11:33:56;67.57;;;30.57;;
13204;SDS011;6667;52.634;9.226;2023-02-23T11:36:26;68.97;;;29.27;;
13204;SDS011;6667;52.634;9.226;2023-02-23T11:39:03;70.47;;;27.53;;
13204;SDS011;6667;52.634;9.226;2023-02-23T11:41:43;64.90;;;28.63;;
13204;SDS011;6667;52.634;9.226;2023-02-23T11:44:17;60.53;;;27.33;;
13204;SDS011;6667;52.634;9.226;2023-02-23T11:46:47;63.20;;;26.87;;
13204;SDS011;6667;52.634;9.226;2023-02-23T11:49:16;69.83;;;27.47;;
13204;SDS011;6667;52.634;9.226;2023-02-23T11:51:46;59.87;;;27.67;;
13204;SDS011;6667;52.634;9.226;2023-02-23T11:54:18;62.17;;;27.43;;
13204;SDS011;6667;52.634;9.226;2023-02-23T11:56:50;54.87;;;25.03;;
13204;SDS011;6667;52.634;9.226;2023-02-23T11:59:20;68.73;;;28.50;;
13204;SDS011;6667;52.634;9.226;2023-02-23T12:01:57;64.80;;;29.37;;
13204;SDS011;6667;52.634;9.226;2023-02-23T12:04:30;66.97;;;27.97;;
13204;SDS011;6667;52.634;9.226;2023-02-23T12:09:46;73.27;;;29.67;;
13204;SDS011;6667;52.634;9.226;2023-02-23T12:12:19;75.77;;;32.53;;
13204;SDS011;6667;52.634;9.226;2023-02-23T12:14:50;81.73;;;32.07;;
13204;SDS011;6667;52.634;9.226;2023-02-23T12:17:22;74.53;;;31.20;;
13204;SDS011;6667;52.634;9.226;2023-02-23T12:19:53;82.00;;;32.30;;
13204;SDS011;6667;52.634;9.226;2023-02-23T12:22:23;78.80;;;31.83;;
13204;SDS011;6667;52.634;9.226;2023-02-23T12:24:55;82.33;;;33.10;;
13204;SDS011;6667;52.634;9.226;2023-02-23T12:27:28;87.60;;;33.60;;
13204;SDS011;6667;52.634;9.226;2023-02-23T12:30:03;74.67;;;31.27;;
13204;SDS011;6667;52.634;9.226;2023-02-23T12:32:41;81.53;;;32.90;;
13204;SDS011;6667;52.634;9.226;2023-02-23T12:35:12;78.60;;;33.13;;
13204;SDS011;6667;52.634;9.226;2023-02-23T12:37:44;83.27;;;32.27;;
13204;SDS011;6667;52.634;9.226;2023-02-23T12:40:17;83.00;;;34.23;;
13204;SDS011;6667;52.634;9.226;2023-02-23T12:42:50;84.60;;;34.90;;
13204;SDS011;6667;52.634;9.226;2023-02-23T12:45:23;87.60;;;34.57;;
13204;SDS011;6667;52.634;9.226;2023-02-23T12:48:01;86.57;;;34.20;;
13204;SDS011;6667;52.634;9.226;2023-02-23T12:50:33;73.63;;;32.67;;
13204;SDS011;6667;52.634;9.226;2023-02-23T12:53:10;87.43;;;35.63;;
13204;SDS011;6667;52.634;9.226;2023-02-23T12:55:47;81.87;;;34.07;;
13204;SDS011;6667;52.634;9.226;2023-02-23T12:58:23;84.07;;;33.77;;
13204;SDS011;6667;52.634;9.226;2023-02-23T13:00:58;77.93;;;34.00;;
13204;SDS011;6667;52.634;9.226;2023-02-23T13:03:50;78.10;;;33.00;;
13204;SDS011;6667;52.634;9.226;2023-02-23T13:06:32;76.00;;;30.43;;
13204;SDS011;6667;52.634;9.226;2023-02-23T13:09:08;72.43;;;30.47;;
13204;SDS011;6667;52.634;9.226;2023-02-23T13:11:44;70.83;;;32.20;;
13204;SDS011;6667;52.634;9.226;2023-02-23T13:14:24;67.10;;;30.10;;
13204;SDS011;6667;52.634;9.226;2023-02-23T13:17:01;65.60;;;29.30;;
13204;SDS011;6667;52.634;9.226;2023-02-23T13:19:36;73.03;;;32.43;;
13204;SDS011;6667;52.634;9.226;2023-02-23T13:22:10;70.27;;;30.80;;
13204;SDS011;6667;52.634;9.226;2023-02-23T13:24:48;62.77;;;28.63;;
13204;SDS011;6667;52.634;9.226;2023-02-23T13:27:19;62.93;;;26.03;;
13204;SDS011;6667;52.634;9.226;2023-02-23T13:29:52;48.80;;;24.03;;
13204;SDS011;6667;52.634;9.226;2023-02-23T13:32:21;57.90;;;24.83;;
13204;SDS011;6667;52.634;9.226;2023-02-23T13:34:51;59.27;;;26.17;;
13204;SDS011;6667;52.634;9.226;2023-02-23T13:37:21;46.40;;;22.43;;
13204;SDS011;6667;52.634;9.226;2023-02-23T13:39:54;48.47;;;22.93;;
13204;SDS011;6667;52.634;9.226;2023-02-23T13:42:32;50.60;;;22.77;;
13204;SDS011;6667;52.634;9.226;2023-02-23T13:45:25;47.73;;;23.70;;
13204;SDS011;6667;52.634;9.226;2023-02-23T13:48:02;43.17;;;21.17;;
13204;SDS011;6667;52.634;9.226;2023-02-23T13:50:41;43.43;;;20.83;;
13204;SDS011;6667;52.634;9.226;2023-02-23T13:53:26;36.97;;;18.53;;
13204;SDS011;6667;52.634;9.226;2023-02-23T13:55:58;38.23;;;18.23;;
13204;SDS011;6667;52.634;9.226;2023-02-23T13:58:26;36.30;;;17.60;;
13204;SDS011;6667;52.634;9.226;2023-02-23T14:01:06;37.87;;;18.23;;
13204;SDS011;6667;52.634;9.226;2023-02-23T14:03:39;35.53;;;16.93;;
13204;SDS011;6667;52.634;9.226;2023-02-23T14:06:12;35.23;;;17.47;;
13204;SDS011;6667;52.634;9.226;2023-02-23T14:08:42;32.20;;;16.47;;
13204;SDS011;6667;52.634;9.226;2023-02-23T14:11:32;36.37;;;16.30;;
13204;SDS011;6667;52.634;9.226;2023-02-23T14:14:02;36.27;;;17.63;;
13204;SDS011;6667;52.634;9.226;2023-02-23T14:16:29;37.23;;;17.53;;
13204;SDS011;6667;52.634;9.226;2023-02-23T14:22:01;32.33;;;17.23;;
13204;SDS011;6667;52.634;9.226;2023-02-23T14:24:33;33.53;;;15.70;;
13204;SDS011;6667;52.634;9.226;2023-02-23T14:30:20;35.57;;;15.90;;
13204;SDS011;6667;52.634;9.226;2023-02-23T14:32:49;30.37;;;14.80;;
13204;SDS011;6667;52.634;9.226;2023-02-23T14:35:36;34.57;;;15.07;;
13204;SDS011;6667;52.634;9.226;2023-02-23T14:38:10;33.63;;;15.33;;
13204;SDS011;6667;52.634;9.226;2023-02-23T14:40:48;41.10;;;16.10;;
13204;SDS011;6667;52.634;9.226;2023-02-23T14:43:31;32.60;;;15.10;;
13204;SDS011;6667;52.634;9.226;2023-02-23T14:46:07;36.80;;;15.57;;
13204;SDS011;6667;52.634;9.226;2023-02-23T14:48:42;43.37;;;16.87;;
13204;SDS011;6667;52.634;9.226;2023-02-23T14:51:21;42.37;;;16.73;;
13204;SDS011;6667;52.634;9.226;2023-02-23T14:53:52;35.03;;;16.03;;
13204;SDS011;6667;52.634;9.226;2023-02-23T14:56:22;42.00;;;17.90;;
13204;SDS011;6667;52.634;9.226;2023-02-23T14:58:50;41.67;;;17.57;;
13204;SDS011;6667;52.634;9.226;2023-02-23T15:01:31;36.87;;;16.40;;
13204;SDS011;6667;52.634;9.226;2023-02-23T15:04:08;39.20;;;16.10;;
13204;SDS011;6667;52.634;9.226;2023-02-23T15:06:36;32.63;;;15.67;;
13204;SDS011;6667;52.634;9.226;2023-02-23T15:09:06;32.20;;;15.57;;
13204;SDS011;6667;52.634;9.226;2023-02-23T15:11:37;37.03;;;14.40;;
13204;SDS011;6667;52.634;9.226;2023-02-23T15:14:08;37.73;;;15.43;;
13204;SDS011;6667;52.634;9.226;2023-02-23T15:16:39;32.53;;;15.80;;